sensor_id;sensor_type;location;lat;lon;timestamp;pressure;altitude;pressure_sealevel;temperature;humidity
80988;BME280;70452;39.386;-3.210;2023-12-07T00:01:41;94615.56;;;5.16;100.00
80988;BME280;70452;39.386;-3.210;2023-12-07T00:04:16;94601.50;;;5.02;100.00
80988;BME280;70452;39.386;-3.210;2023-12-07T00:06:47;94613.13;;;4.91;100.00
80988;BME280;70452;39.386;-3.210;2023-12-07T00:09:23;94615.28;;;4.77;100.00
80988;BME280;70452;39.386;-3.210;2023-12-07T00:14:45;94622.56;;;4.65;100.00
80988;BME280;70452;39.386;-3.210;2023-12-07T00:17:24;94612.59;;;4.54;100.00
80988;BME280;70452;39.386;-3.210;2023-12-07T00:19:53;94609.88;;;4.42;100.00
80988;BME280;70452;39.386;-3.210;2023-12-07T00:22:23;94601.94;;;4.35;100.00
80988;BME280;70452;39.386;-3.210;2023-12-07T00:25:00;94600.97;;;4.29;100.00
80988;BME280;70452;39.386;-3.210;2023-12-07T00:27:57;94592.31;;;4.27;100.00
80988;BME280;70452;39.386;-3.210;2023-12-07T00:30:34;94596.06;;;4.26;100.00
80988;BME280;70452;39.386;-3.210;2023-12-07T00:33:15;94600.03;;;4.24;100.00
80988;BME280;70452;39.386;-3.210;2023-12-07T00:35:58;94598.28;;;4.18;100.00
80988;BME280;70452;39.386;-3.210;2023-12-07T00:38:32;94586.31;;;4.13;100.00
80988;BME280;70452;39.386;-3.210;2023-12-07T00:41:05;94578.69;;;4.10;100.00
80988;BME280;70452;39.386;-3.210;2023-12-07T00:43:39;94581.16;;;4.12;100.00
80988;BME280;70452;39.386;-3.210;2023-12-07T00:46:17;94575.97;;;4.10;100.00
80988;BME280;70452;39.386;-3.210;2023-12-07T00:48:50;94583.84;;;4.12;100.00
80988;BME280;70452;39.386;-3.210;2023-12-07T00:51:28;94577.88;;;4.10;100.00
80988;BME280;70452;39.386;-3.210;2023-12-07T00:54:00;94580.78;;;4.08;100.00
80988;BME280;70452;39.386;-3.210;2023-12-07T00:56:34;94579.53;;;4.11;100.00
80988;BME280;70452;39.386;-3.210;2023-12-07T00:59:15;94577.63;;;4.11;100.00
80988;BME280;70452;39.386;-3.210;2023-12-07T01:01:52;94582.69;;;4.08;100.00
80988;BME280;70452;39.386;-3.210;2023-12-07T01:04:27;94575.16;;;4.10;100.00
80988;BME280;70452;39.386;-3.210;2023-12-07T01:07:08;94572.25;;;4.11;100.00
80988;BME280;70452;39.386;-3.210;2023-12-07T01:09:55;94571.56;;;3.62;100.00
80988;BME280;70452;39.386;-3.210;2023-12-07T01:12:30;94567.41;;;3.36;100.00
80988;BME280;70452;39.386;-3.210;2023-12-07T01:15:15;94565.13;;;2.91;100.00
80988;BME280;70452;39.386;-3.210;2023-12-07T01:17:52;94571.78;;;2.70;100.00
80988;BME280;70452;39.386;-3.210;2023-12-07T01:20:27;94570.75;;;2.71;100.00
80988;BME280;70452;39.386;-3.210;2023-12-07T01:23:03;94577.38;;;2.87;100.00
80988;BME280;70452;39.386;-3.210;2023-12-07T01:25:34;94576.63;;;2.79;100.00
80988;BME280;70452;39.386;-3.210;2023-12-07T01:28:08;94573.44;;;2.71;100.00
80988;BME280;70452;39.386;-3.210;2023-12-07T01:31:00;94578.66;;;2.84;100.00
80988;BME280;70452;39.386;-3.210;2023-12-07T01:33:38;94578.81;;;2.89;100.00
80988;BME280;70452;39.386;-3.210;2023-12-07T01:36:13;94563.34;;;2.66;100.00
80988;BME280;70452;39.386;-3.210;2023-12-07T01:38:55;94572.53;;;2.58;100.00
80988;BME280;70452;39.386;-3.210;2023-12-07T01:41:24;94575.38;;;2.63;100.00
80988;BME280;70452;39.386;-3.210;2023-12-07T01:43:53;94575.31;;;2.70;100.00
80988;BME280;70452;39.386;-3.210;2023-12-07T01:46:29;94569.44;;;2.73;100.00
80988;BME280;70452;39.386;-3.210;2023-12-07T01:49:02;94565.50;;;2.57;100.00
80988;BME280;70452;39.386;-3.210;2023-12-07T01:51:36;94568.88;;;2.71;100.00
80988;BME280;70452;39.386;-3.210;2023-12-07T01:54:08;94569.84;;;2.77;100.00
80988;BME280;70452;39.386;-3.210;2023-12-07T01:57:00;94576.28;;;2.76;100.00
80988;BME280;70452;39.386;-3.210;2023-12-07T01:59:29;94569.16;;;2.81;100.00
80988;BME280;70452;39.386;-3.210;2023-12-07T02:02:04;94575.38;;;2.82;100.00
80988;BME280;70452;39.386;-3.210;2023-12-07T02:04:32;94568.63;;;2.91;100.00
80988;BME280;70452;39.386;-3.210;2023-12-07T02:07:07;94577.75;;;2.90;100.00
80988;BME280;70452;39.386;-3.210;2023-12-07T02:12:53;94568.00;;;3.08;100.00
80988;BME280;70452;39.386;-3.210;2023-12-07T02:15:30;94565.19;;;3.03;100.00
80988;BME280;70452;39.386;-3.210;2023-12-07T02:18:21;94569.50;;;3.04;100.00
80988;BME280;70452;39.386;-3.210;2023-12-07T02:23:59;94565.19;;;3.03;100.00
80988;BME280;70452;39.386;-3.210;2023-12-07T02:26:40;94564.72;;;3.06;100.00
80988;BME280;70452;39.386;-3.210;2023-12-07T02:31:51;94574.94;;;3.15;100.00
80988;BME280;70452;39.386;-3.210;2023-12-07T02:34:23;94582.22;;;3.15;100.00
80988;BME280;70452;39.386;-3.210;2023-12-07T02:37:01;94582.34;;;3.20;100.00
80988;BME280;70452;39.386;-3.210;2023-12-07T02:39:35;94588.28;;;3.10;100.00
80988;BME280;70452;39.386;-3.210;2023-12-07T02:42:13;94582.25;;;3.27;100.00
80988;BME280;70452;39.386;-3.210;2023-12-07T02:44:45;94574.53;;;3.30;100.00
80988;BME280;70452;39.386;-3.210;2023-12-07T02:47:17;94583.81;;;3.34;100.00
80988;BME280;70452;39.386;-3.210;2023-12-07T02:49:52;94589.69;;;3.43;100.00
80988;BME280;70452;39.386;-3.210;2023-12-07T02:52:25;94585.63;;;3.64;100.00
80988;BME280;70452;39.386;-3.210;2023-12-07T02:54:57;94591.16;;;3.69;100.00
80988;BME280;70452;39.386;-3.210;2023-12-07T02:57:24;94587.06;;;3.67;100.00
80988;BME280;70452;39.386;-3.210;2023-12-07T03:00:05;94590.81;;;3.66;100.00
80988;BME280;70452;39.386;-3.210;2023-12-07T03:02:38;94592.63;;;3.84;100.00
80988;BME280;70452;39.386;-3.210;2023-12-07T03:05:11;94591.16;;;3.69;100.00
80988;BME280;70452;39.386;-3.210;2023-12-07T03:07:57;94591.06;;;3.76;100.00
80988;BME280;70452;39.386;-3.210;2023-12-07T03:10:39;94597.84;;;3.67;100.00
80988;BME280;70452;39.386;-3.210;2023-12-07T03:13:10;94592.50;;;3.48;100.00
80988;BME280;70452;39.386;-3.210;2023-12-07T03:15:47;94597.31;;;3.77;100.00
80988;BME280;70452;39.386;-3.210;2023-12-07T03:18:28;94607.13;;;3.83;100.00
80988;BME280;70452;39.386;-3.210;2023-12-07T03:20:57;94611.25;;;3.85;100.00
80988;BME280;70452;39.386;-3.210;2023-12-07T03:23:35;94596.66;;;3.63;100.00
80988;BME280;70452;39.386;-3.210;2023-12-07T03:26:01;94600.53;;;3.67;100.00
80988;BME280;70452;39.386;-3.210;2023-12-07T03:28:32;94601.34;;;3.67;100.00
80988;BME280;70452;39.386;-3.210;2023-12-07T03:31:12;94599.88;;;3.83;100.00
80988;BME280;70452;39.386;-3.210;2023-12-07T03:33:46;94594.72;;;3.93;100.00
80988;BME280;70452;39.386;-3.210;2023-12-07T03:36:18;94596.72;;;3.98;100.00
80988;BME280;70452;39.386;-3.210;2023-12-07T03:38:52;94591.34;;;3.98;100.00
80988;BME280;70452;39.386;-3.210;2023-12-07T03:41:22;94590.50;;;3.86;100.00
80988;BME280;70452;39.386;-3.210;2023-12-07T03:43:54;94591.66;;;3.90;100.00
80988;BME280;70452;39.386;-3.210;2023-12-07T03:46:23;94596.72;;;3.86;100.00
80988;BME280;70452;39.386;-3.210;2023-12-07T03:49:01;94590.50;;;3.86;100.00
80988;BME280;70452;39.386;-3.210;2023-12-07T03:51:39;94591.66;;;3.90;100.00
80988;BME280;70452;39.386;-3.210;2023-12-07T03:54:07;94597.06;;;3.90;100.00
80988;BME280;70452;39.386;-3.210;2023-12-07T03:56:37;94594.97;;;3.92;100.00
80988;BME280;70452;39.386;-3.210;2023-12-07T03:59:44;94592.38;;;3.97;100.00
80988;BME280;70452;39.386;-3.210;2023-12-07T04:02:17;94594.84;;;3.99;100.00
80988;BME280;70452;39.386;-3.210;2023-12-07T04:04:52;94597.19;;;3.95;100.00
80988;BME280;70452;39.386;-3.210;2023-12-07T04:07:27;94600.25;;;3.99;100.00
80988;BME280;70452;39.386;-3.210;2023-12-07T04:10:01;94595.09;;;4.09;100.00
80988;BME280;70452;39.386;-3.210;2023-12-07T04:12:34;94587.00;;;4.09;100.00
80988;BME280;70452;39.386;-3.210;2023-12-07T04:15:23;94590.44;;;4.16;100.00
80988;BME280;70452;39.386;-3.210;2023-12-07T04:18:12;94594.75;;;4.05;100.00
80988;BME280;70452;39.386;-3.210;2023-12-07T04:20:44;94591.59;;;4.08;100.00
80988;BME280;70452;39.386;-3.210;2023-12-07T04:23:22;94590.69;;;4.26;100.00
80988;BME280;70452;39.386;-3.210;2023-12-07T04:25:53;94593.22;;;4.33;100.00
80988;BME280;70452;39.386;-3.210;2023-12-07T04:31:22;94585.00;;;4.28;100.00
80988;BME280;70452;39.386;-3.210;2023-12-07T04:33:57;94584.31;;;4.21;100.00
80988;BME280;70452;39.386;-3.210;2023-12-07T04:36:34;94587.34;;;4.12;100.00
80988;BME280;70452;39.386;-3.210;2023-12-07T04:39:07;94577.53;;;4.18;100.00
80988;BME280;70452;39.386;-3.210;2023-12-07T04:41:44;94577.53;;;4.18;100.00
80988;BME280;70452;39.386;-3.210;2023-12-07T04:44:16;94577.88;;;4.22;100.00
80988;BME280;70452;39.386;-3.210;2023-12-07T04:46:43;94584.09;;;4.22;100.00
80988;BME280;70452;39.386;-3.210;2023-12-07T04:49:14;94581.16;;;4.24;100.00
80988;BME280;70452;39.386;-3.210;2023-12-07T04:51:52;94579.03;;;4.26;100.00
80988;BME280;70452;39.386;-3.210;2023-12-07T04:54:38;94574.34;;;4.33;100.00
80988;BME280;70452;39.386;-3.210;2023-12-07T04:57:10;94589.03;;;4.37;100.00
80988;BME280;70452;39.386;-3.210;2023-12-07T04:59:44;94582.81;;;4.25;100.00
80988;BME280;70452;39.386;-3.210;2023-12-07T05:02:38;94587.84;;;4.33;100.00
80988;BME280;70452;39.386;-3.210;2023-12-07T05:05:16;94592.19;;;4.34;100.00
80988;BME280;70452;39.386;-3.210;2023-12-07T05:07:42;94594.31;;;4.44;100.00
80988;BME280;70452;39.386;-3.210;2023-12-07T05:10:22;94596.53;;;4.35;100.00
80988;BME280;70452;39.386;-3.210;2023-12-07T05:12:51;94602.41;;;4.44;100.00
80988;BME280;70452;39.386;-3.210;2023-12-07T05:15:34;94597.81;;;4.56;100.00
80988;BME280;70452;39.386;-3.210;2023-12-07T05:18:20;94596.88;;;4.39;100.00
80988;BME280;70452;39.386;-3.210;2023-12-07T05:21:12;94601.22;;;4.28;100.00
80988;BME280;70452;39.386;-3.210;2023-12-07T05:23:45;94612.50;;;4.37;100.00
80988;BME280;70452;39.386;-3.210;2023-12-07T05:26:27;94607.44;;;4.28;100.00
80988;BME280;70452;39.386;-3.210;2023-12-07T05:29:21;94616.94;;;4.31;100.00
80988;BME280;70452;39.386;-3.210;2023-12-07T05:31:49;94610.72;;;4.42;100.00
80988;BME280;70452;39.386;-3.210;2023-12-07T05:34:27;94611.91;;;4.46;100.00
80988;BME280;70452;39.386;-3.210;2023-12-07T05:37:08;94610.97;;;4.41;100.00
80988;BME280;70452;39.386;-3.210;2023-12-07T05:39:40;94614.72;;;4.51;100.00
80988;BME280;70452;39.386;-3.210;2023-12-07T05:42:09;94613.19;;;4.56;100.00
80988;BME280;70452;39.386;-3.210;2023-12-07T05:44:42;94610.63;;;4.37;100.00
80988;BME280;70452;39.386;-3.210;2023-12-07T05:47:11;94621.75;;;4.41;100.00
80988;BME280;70452;39.386;-3.210;2023-12-07T05:50:00;94617.75;;;4.43;100.00
80988;BME280;70452;39.386;-3.210;2023-12-07T05:52:36;94621.28;;;4.32;100.00
80988;BME280;70452;39.386;-3.210;2023-12-07T05:55:13;94625.25;;;4.18;100.00
80988;BME280;70452;39.386;-3.210;2023-12-07T05:57:45;94632.41;;;4.12;100.00
80988;BME280;70452;39.386;-3.210;2023-12-07T06:00:14;94629.16;;;4.22;100.00
80988;BME280;70452;39.386;-3.210;2023-12-07T06:03:03;94633.84;;;4.26;100.00
80988;BME280;70452;39.386;-3.210;2023-12-07T06:05:47;94634.53;;;4.22;100.00
80988;BME280;70452;39.386;-3.210;2023-12-07T06:08:22;94628.91;;;4.23;100.00
80988;BME280;70452;39.386;-3.210;2023-12-07T06:10:53;94633.81;;;4.38;100.00
80988;BME280;70452;39.386;-3.210;2023-12-07T06:13:51;94637.13;;;4.28;100.00
80988;BME280;70452;39.386;-3.210;2023-12-07T06:16:16;94638.03;;;4.10;100.00
80988;BME280;70452;39.386;-3.210;2023-12-07T06:18:53;94636.63;;;4.08;100.00
80988;BME280;70452;39.386;-3.210;2023-12-07T06:21:34;94645.19;;;4.05;100.00
80988;BME280;70452;39.386;-3.210;2023-12-07T06:24:09;94646.22;;;4.04;100.00
80988;BME280;70452;39.386;-3.210;2023-12-07T06:26:45;94655.53;;;4.20;100.00
80988;BME280;70452;39.386;-3.210;2023-12-07T06:29:18;94654.69;;;4.19;100.00
80988;BME280;70452;39.386;-3.210;2023-12-07T06:31:45;94656.91;;;4.10;100.00
80988;BME280;70452;39.386;-3.210;2023-12-07T06:34:23;94654.53;;;4.02;100.00
80988;BME280;70452;39.386;-3.210;2023-12-07T06:36:59;94653.84;;;4.07;100.00
80988;BME280;70452;39.386;-3.210;2023-12-07T06:39:38;94655.69;;;3.83;100.00
80988;BME280;70452;39.386;-3.210;2023-12-07T06:42:10;94650.09;;;3.96;100.00
80988;BME280;70452;39.386;-3.210;2023-12-07T06:44:52;94653.94;;;3.88;100.00
80988;BME280;70452;39.386;-3.210;2023-12-07T06:47:30;94658.41;;;3.94;100.00
80988;BME280;70452;39.386;-3.210;2023-12-07T06:49:59;94658.22;;;4.08;100.00
80988;BME280;70452;39.386;-3.210;2023-12-07T06:52:28;94658.34;;;4.13;100.00
80988;BME280;70452;39.386;-3.210;2023-12-07T06:54:57;94666.31;;;4.08;100.00
80988;BME280;70452;39.386;-3.210;2023-12-07T06:57:29;94649.28;;;4.07;100.00
80988;BME280;70452;39.386;-3.210;2023-12-07T07:00:03;94646.56;;;4.07;100.00
80988;BME280;70452;39.386;-3.210;2023-12-07T07:02:53;94645.50;;;3.97;100.00
80988;BME280;70452;39.386;-3.210;2023-12-07T07:05:39;94633.44;;;3.99;100.00
80988;BME280;70452;39.386;-3.210;2023-12-07T07:08:11;94625.00;;;4.07;100.00
80988;BME280;70452;39.386;-3.210;2023-12-07T07:10:40;94635.06;;;3.88;100.00
80988;BME280;70452;39.386;-3.210;2023-12-07T07:13:11;94634.47;;;3.86;100.00
80988;BME280;70452;39.386;-3.210;2023-12-07T07:15:41;94643.13;;;3.88;100.00
80988;BME280;70452;39.386;-3.210;2023-12-07T07:18:17;94633.06;;;3.84;100.00
80988;BME280;70452;39.386;-3.210;2023-12-07T07:20:59;94629.38;;;3.66;100.00
80988;BME280;70452;39.386;-3.210;2023-12-07T07:23:34;94621.44;;;3.71;100.00
80988;BME280;70452;39.386;-3.210;2023-12-07T07:26:09;94613.78;;;3.68;100.00
80988;BME280;70452;39.386;-3.210;2023-12-07T07:29:00;94611.56;;;3.65;100.00
80988;BME280;70452;39.386;-3.210;2023-12-07T07:31:28;94606.63;;;3.62;100.00
80988;BME280;70452;39.386;-3.210;2023-12-07T07:34:08;94613.13;;;3.43;100.00
80988;BME280;70452;39.386;-3.210;2023-12-07T07:36:45;94613.34;;;3.41;100.00
80988;BME280;70452;39.386;-3.210;2023-12-07T07:39:22;94619.66;;;3.65;100.00
80988;BME280;70452;39.386;-3.210;2023-12-07T07:41:55;94620.50;;;3.78;100.00
80988;BME280;70452;39.386;-3.210;2023-12-07T07:44:34;94618.38;;;3.80;100.00
80988;BME280;70452;39.386;-3.210;2023-12-07T07:47:11;94620.94;;;4.17;100.00
80988;BME280;70452;39.386;-3.210;2023-12-07T07:49:46;94623.66;;;4.40;100.00
80988;BME280;70452;39.386;-3.210;2023-12-07T07:52:34;94634.53;;;4.69;100.00
80988;BME280;70452;39.386;-3.210;2023-12-07T07:55:11;94634.75;;;4.91;100.00
80988;BME280;70452;39.386;-3.210;2023-12-07T07:57:43;94632.72;;;4.98;100.00
80988;BME280;70452;39.386;-3.210;2023-12-07T08:00:36;94638.81;;;5.17;100.00
80988;BME280;70452;39.386;-3.210;2023-12-07T08:03:18;94654.41;;;5.27;100.00
80988;BME280;70452;39.386;-3.210;2023-12-07T08:05:58;94644.97;;;5.41;100.00
80988;BME280;70452;39.386;-3.210;2023-12-07T08:08:38;94644.91;;;5.53;100.00
80988;BME280;70452;39.386;-3.210;2023-12-07T08:11:30;94644.06;;;5.64;100.00
80988;BME280;70452;39.386;-3.210;2023-12-07T08:14:00;94641.59;;;5.63;100.00
80988;BME280;70452;39.386;-3.210;2023-12-07T08:16:38;94631.25;;;5.60;100.00
80988;BME280;70452;39.386;-3.210;2023-12-07T08:19:31;94633.53;;;5.80;100.00
80988;BME280;70452;39.386;-3.210;2023-12-07T08:24:49;94644.94;;;6.11;100.00
80988;BME280;70452;39.386;-3.210;2023-12-07T08:30:12;94647.97;;;6.31;100.00
80988;BME280;70452;39.386;-3.210;2023-12-07T08:33:00;94635.91;;;6.39;100.00
80988;BME280;70452;39.386;-3.210;2023-12-07T08:36:00;94636.84;;;6.45;100.00
80988;BME280;70452;39.386;-3.210;2023-12-07T08:38:57;94630.91;;;6.48;100.00
80988;BME280;70452;39.386;-3.210;2023-12-07T08:41:31;94620.44;;;6.34;100.00
80988;BME280;70452;39.386;-3.210;2023-12-07T08:43:59;94632.78;;;6.30;100.00
80988;BME280;70452;39.386;-3.210;2023-12-07T08:49:37;94628.28;;;6.53;100.00
80988;BME280;70452;39.386;-3.210;2023-12-07T08:52:29;94637.00;;;6.55;100.00
80988;BME280;70452;39.386;-3.210;2023-12-07T08:54:54;94647.75;;;6.50;100.00
80988;BME280;70452;39.386;-3.210;2023-12-07T08:58:05;94663.78;;;6.73;100.00
80988;BME280;70452;39.386;-3.210;2023-12-07T09:00:39;94671.09;;;6.73;100.00
80988;BME280;70452;39.386;-3.210;2023-12-07T09:03:25;94667.34;;;6.74;100.00
80988;BME280;70452;39.386;-3.210;2023-12-07T09:06:23;94669.13;;;6.85;100.00
80988;BME280;70452;39.386;-3.210;2023-12-07T09:08:56;94675.00;;;6.99;100.00
80988;BME280;70452;39.386;-3.210;2023-12-07T09:11:33;94674.09;;;7.10;100.00
80988;BME280;70452;39.386;-3.210;2023-12-07T09:14:20;94668.56;;;7.22;100.00
80988;BME280;70452;39.386;-3.210;2023-12-07T09:17:03;94672.09;;;7.23;100.00
80988;BME280;70452;39.386;-3.210;2023-12-07T09:19:41;94677.09;;;7.53;100.00
80988;BME280;70452;39.386;-3.210;2023-12-07T09:22:13;94684.63;;;7.73;100.00
80988;BME280;70452;39.386;-3.210;2023-12-07T09:25:04;94685.97;;;7.93;100.00
80988;BME280;70452;39.386;-3.210;2023-12-07T09:27:41;94685.78;;;8.04;100.00
80988;BME280;70452;39.386;-3.210;2023-12-07T09:30:19;94679.75;;;8.24;100.00
80988;BME280;70452;39.386;-3.210;2023-12-07T09:32:47;94688.84;;;8.40;100.00
80988;BME280;70452;39.386;-3.210;2023-12-07T09:35:14;94683.00;;;8.49;100.00
80988;BME280;70452;39.386;-3.210;2023-12-07T09:37:49;94685.53;;;8.60;100.00
80988;BME280;70452;39.386;-3.210;2023-12-07T09:40:27;94680.56;;;8.85;100.00
80988;BME280;70452;39.386;-3.210;2023-12-07T09:43:07;94680.41;;;9.01;100.00
80988;BME280;70452;39.386;-3.210;2023-12-07T09:45:58;94687.84;;;9.16;100.00
80988;BME280;70452;39.386;-3.210;2023-12-07T09:48:47;94688.47;;;9.29;100.00
80988;BME280;70452;39.386;-3.210;2023-12-07T09:51:30;94687.16;;;9.42;100.00
80988;BME280;70452;39.386;-3.210;2023-12-07T09:54:02;94684.78;;;9.55;100.00
80988;BME280;70452;39.386;-3.210;2023-12-07T09:56:37;94666.63;;;9.66;100.00
80988;BME280;70452;39.386;-3.210;2023-12-07T09:59:15;94672.63;;;9.73;100.00
80988;BME280;70452;39.386;-3.210;2023-12-07T10:01:56;94675.09;;;9.75;100.00
80988;BME280;70452;39.386;-3.210;2023-12-07T10:04:36;94666.97;;;9.85;100.00
80988;BME280;70452;39.386;-3.210;2023-12-07T10:07:26;94675.13;;;9.85;100.00
80988;BME280;70452;39.386;-3.210;2023-12-07T10:10:09;94670.53;;;9.96;100.00
80988;BME280;70452;39.386;-3.210;2023-12-07T10:12:58;94669.72;;;10.01;100.00
80988;BME280;70452;39.386;-3.210;2023-12-07T10:15:37;94663.69;;;9.93;100.00
80988;BME280;70452;39.386;-3.210;2023-12-07T10:18:08;94660.97;;;9.93;100.00
80988;BME280;70452;39.386;-3.210;2023-12-07T10:20:37;94654.19;;;9.96;100.00
80988;BME280;70452;39.386;-3.210;2023-12-07T10:23:17;94653.38;;;9.95;100.00
80988;BME280;70452;39.386;-3.210;2023-12-07T10:25:48;94659.09;;;9.99;100.00
80988;BME280;70452;39.386;-3.210;2023-12-07T10:31:31;94656.97;;;10.17;100.00
80988;BME280;70452;39.386;-3.210;2023-12-07T10:34:00;94669.50;;;10.23;100.00
80988;BME280;70452;39.386;-3.210;2023-12-07T10:36:39;94660.81;;;10.36;100.00
80988;BME280;70452;39.386;-3.210;2023-12-07T10:42:09;94651.06;;;10.71;100.00
80988;BME280;70452;39.386;-3.210;2023-12-07T10:44:46;94647.22;;;10.87;100.00
80988;BME280;70452;39.386;-3.210;2023-12-07T10:47:19;94644.75;;;10.86;100.00
80988;BME280;70452;39.386;-3.210;2023-12-07T10:50:00;94642.81;;;10.97;100.00
80988;BME280;70452;39.386;-3.210;2023-12-07T10:52:35;94637.94;;;10.99;100.00
80988;BME280;70452;39.386;-3.210;2023-12-07T10:58:04;94633.00;;;11.11;100.00
80988;BME280;70452;39.386;-3.210;2023-12-07T11:00:53;94635.19;;;11.14;100.00
80988;BME280;70452;39.386;-3.210;2023-12-07T11:03:49;94631.06;;;11.27;100.00
80988;BME280;70452;39.386;-3.210;2023-12-07T11:06:39;94626.38;;;11.38;100.00
80988;BME280;70452;39.386;-3.210;2023-12-07T11:09:15;94616.78;;;11.51;100.00
80988;BME280;70452;39.386;-3.210;2023-12-07T11:11:54;94604.44;;;11.63;100.00
80988;BME280;70452;39.386;-3.210;2023-12-07T11:14:25;94594.94;;;11.56;100.00
80988;BME280;70452;39.386;-3.210;2023-12-07T11:16:56;94598.41;;;11.72;100.00
80988;BME280;70452;39.386;-3.210;2023-12-07T11:22:29;94595.03;;;11.90;100.00
80988;BME280;70452;39.386;-3.210;2023-12-07T11:25:01;94584.38;;;11.89;100.00
80988;BME280;70452;39.386;-3.210;2023-12-07T11:27:32;94577.28;;;11.88;100.00
80988;BME280;70452;39.386;-3.210;2023-12-07T11:30:08;94571.28;;;11.86;100.00
80988;BME280;70452;39.386;-3.210;2023-12-07T11:32:40;94570.53;;;11.80;100.00
80988;BME280;70452;39.386;-3.210;2023-12-07T11:35:17;94557.09;;;11.89;100.00
80988;BME280;70452;39.386;-3.210;2023-12-07T11:40:46;94557.31;;;11.97;100.00
80988;BME280;70452;39.386;-3.210;2023-12-07T11:46:05;94555.38;;;12.03;100.00
80988;BME280;70452;39.386;-3.210;2023-12-07T11:48:37;94563.34;;;11.94;100.00
80988;BME280;70452;39.386;-3.210;2023-12-07T11:51:16;94569.31;;;12.01;100.00
80988;BME280;70452;39.386;-3.210;2023-12-07T11:54:03;94568.75;;;12.05;100.00
80988;BME280;70452;39.386;-3.210;2023-12-07T11:59:41;94562.19;;;12.06;100.00
80988;BME280;70452;39.386;-3.210;2023-12-07T12:02:13;94557.22;;;12.13;100.00
80988;BME280;70452;39.386;-3.210;2023-12-07T12:04:51;94559.63;;;12.19;100.00
80988;BME280;70452;39.386;-3.210;2023-12-07T12:07:31;94556.38;;;12.17;100.00
80988;BME280;70452;39.386;-3.210;2023-12-07T12:10:17;94550.97;;;12.12;100.00
80988;BME280;70452;39.386;-3.210;2023-12-07T12:13:11;94550.56;;;12.29;100.00
80988;BME280;70452;39.386;-3.210;2023-12-07T12:15:46;94545.91;;;12.30;100.00
80988;BME280;70452;39.386;-3.210;2023-12-07T12:18:16;94548.50;;;12.45;100.00
80988;BME280;70452;39.386;-3.210;2023-12-07T12:21:11;94543.63;;;12.71;100.00
80988;BME280;70452;39.386;-3.210;2023-12-07T12:23:55;94545.53;;;12.71;100.00
80988;BME280;70452;39.386;-3.210;2023-12-07T12:26:47;94533.34;;;12.87;100.00
80988;BME280;70452;39.386;-3.210;2023-12-07T12:29:27;94537.41;;;12.90;100.00
80988;BME280;70452;39.386;-3.210;2023-12-07T12:32:00;94537.59;;;12.99;100.00
80988;BME280;70452;39.386;-3.210;2023-12-07T12:34:44;94532.59;;;13.06;100.00
80988;BME280;70452;39.386;-3.210;2023-12-07T12:37:36;94520.66;;;12.97;100.00
80988;BME280;70452;39.386;-3.210;2023-12-07T12:40:06;94527.00;;;12.92;100.00
80988;BME280;70452;39.386;-3.210;2023-12-07T12:42:39;94512.22;;;12.93;100.00
80988;BME280;70452;39.386;-3.210;2023-12-07T12:58:29;94504.44;;;13.05;100.00
80988;BME280;70452;39.386;-3.210;2023-12-07T13:01:09;94484.69;;;13.08;100.00
80988;BME280;70452;39.386;-3.210;2023-12-07T13:03:53;94497.53;;;13.08;100.00
80988;BME280;70452;39.386;-3.210;2023-12-07T13:06:24;94488.47;;;13.12;100.00
80988;BME280;70452;39.386;-3.210;2023-12-07T13:09:04;94491.50;;;13.11;100.00
80988;BME280;70452;39.386;-3.210;2023-12-07T13:11:50;94489.81;;;13.15;100.00
80988;BME280;70452;39.386;-3.210;2023-12-07T13:14:24;94484.03;;;13.17;100.00
80988;BME280;70452;39.386;-3.210;2023-12-07T13:17:05;94477.75;;;13.16;100.00
80988;BME280;70452;39.386;-3.210;2023-12-07T13:19:56;94475.88;;;13.11;100.00
80988;BME280;70452;39.386;-3.210;2023-12-07T13:22:34;94462.88;;;13.03;100.00
80988;BME280;70452;39.386;-3.210;2023-12-07T13:25:12;94463.22;;;12.97;100.00
80988;BME280;70452;39.386;-3.210;2023-12-07T13:27:59;94465.91;;;13.02;100.00
80988;BME280;70452;39.386;-3.210;2023-12-07T13:30:30;94455.75;;;13.02;100.00
80988;BME280;70452;39.386;-3.210;2023-12-07T13:33:08;94454.38;;;13.05;100.00
80988;BME280;70452;39.386;-3.210;2023-12-07T13:35:40;94456.84;;;13.01;100.00
80988;BME280;70452;39.386;-3.210;2023-12-07T13:38:09;94450.94;;;12.94;100.00
80988;BME280;70452;39.386;-3.210;2023-12-07T13:40:52;94445.75;;;12.92;100.00
80988;BME280;70452;39.386;-3.210;2023-12-07T13:43:42;94436.34;;;12.80;100.00
80988;BME280;70452;39.386;-3.210;2023-12-07T13:46:27;94445.41;;;12.75;100.00
80988;BME280;70452;39.386;-3.210;2023-12-07T13:49:10;94442.63;;;12.80;100.00
80988;BME280;70452;39.386;-3.210;2023-12-07T13:51:47;94436.13;;;12.76;100.00
80988;BME280;70452;39.386;-3.210;2023-12-07T13:54:27;94431.22;;;12.73;100.00
80988;BME280;70452;39.386;-3.210;2023-12-07T13:57:05;94427.56;;;12.83;100.00
80988;BME280;70452;39.386;-3.210;2023-12-07T14:02:42;94421.66;;;11.48;100.00
80988;BME280;70452;39.386;-3.210;2023-12-07T14:05:11;94404.25;;;10.94;100.00
80988;BME280;70452;39.386;-3.210;2023-12-07T14:07:40;94405.16;;;10.74;100.00
80988;BME280;70452;39.386;-3.210;2023-12-07T14:10:22;94407.94;;;10.59;100.00
80988;BME280;70452;39.386;-3.210;2023-12-07T14:13:00;94393.53;;;10.48;100.00
80988;BME280;70452;39.386;-3.210;2023-12-07T14:15:51;94393.31;;;10.34;100.00
80988;BME280;70452;39.386;-3.210;2023-12-07T14:18:20;94397.44;;;10.11;100.00
80988;BME280;70452;39.386;-3.210;2023-12-07T14:20:46;94390.34;;;10.15;100.00
80988;BME280;70452;39.386;-3.210;2023-12-07T14:23:23;94392.81;;;9.96;100.00
80988;BME280;70452;39.386;-3.210;2023-12-07T14:25:55;94392.00;;;10.01;100.00
80988;BME280;70452;39.386;-3.210;2023-12-07T14:28:46;94393.34;;;10.13;100.00
80988;BME280;70452;39.386;-3.210;2023-12-07T14:31:25;94389.81;;;10.13;100.00
80988;BME280;70452;39.386;-3.210;2023-12-07T14:33:55;94397.13;;;10.18;100.00
80988;BME280;70452;39.386;-3.210;2023-12-07T14:36:29;94399.59;;;10.14;100.00
80988;BME280;70452;39.386;-3.210;2023-12-07T14:39:16;94393.31;;;10.19;100.00
80988;BME280;70452;39.386;-3.210;2023-12-07T14:42:00;94399.06;;;10.12;100.00